sensor_id;sensor_type;location;lat;lon;timestamp;pressure;altitude;pressure_sealevel;temperature;humidity
53758;BME280;39674;59.860;30.672;2023-11-19T01:01:24;101739.19;;;-7.24;100.00
53758;BME280;39674;59.860;30.672;2023-11-19T01:05:45;101836.25;;;-6.70;100.00
53758;BME280;39674;59.860;30.672;2023-11-19T01:14:08;101758.97;;;-7.21;100.00
53758;BME280;39674;59.860;30.672;2023-11-19T02:20:16;101825.72;;;-6.53;100.00
53758;BME280;39674;59.860;30.672;2023-11-19T02:26:40;101720.69;;;-7.15;100.00
53758;BME280;39674;59.860;30.672;2023-11-19T02:39:30;101711.66;;;-7.28;100.00
53758;BME280;39674;59.860;30.672;2023-11-19T02:42:25;101716.94;;;-7.23;100.00
53758;BME280;39674;59.860;30.672;2023-11-19T02:47:04;101713.69;;;-7.19;100.00
53758;BME280;39674;59.860;30.672;2023-11-19T04:37:01;101644.22;;;-7.00;100.00
53758;BME280;39674;59.860;30.672;2023-11-19T04:41:27;101633.00;;;-7.02;100.00
53758;BME280;39674;59.860;30.672;2023-11-19T04:45:18;101742.41;;;-6.34;100.00
53758;BME280;39674;59.860;30.672;2023-11-19T04:49:49;101624.06;;;-7.13;100.00
53758;BME280;39674;59.860;30.672;2023-11-19T06:47:56;101699.47;;;-6.11;100.00
53758;BME280;39674;59.860;30.672;2023-11-19T06:52:40;101702.22;;;-6.05;100.00
53758;BME280;39674;59.860;30.672;2023-11-19T06:57:00;101581.69;;;-6.74;100.00
53758;BME280;39674;59.860;30.672;2023-11-19T07:21:16;101629.13;;;-6.39;100.00
53758;BME280;39674;59.860;30.672;2023-11-19T07:32:50;101688.19;;;-5.87;100.00
53758;BME280;39674;59.860;30.672;2023-11-19T07:40:49;101590.56;;;-6.39;100.00
53758;BME280;39674;59.860;30.672;2023-11-19T07:47:39;101580.47;;;-6.33;100.00
53758;BME280;39674;59.860;30.672;2023-11-19T07:50:59;101653.72;;;-5.92;100.00
53758;BME280;39674;59.860;30.672;2023-11-19T07:53:52;101692.44;;;-5.60;100.00
53758;BME280;39674;59.860;30.672;2023-11-19T07:56:50;101585.91;;;-6.23;100.00
53758;BME280;39674;59.860;30.672;2023-11-19T08:00:41;101579.13;;;-6.21;100.00
53758;BME280;39674;59.860;30.672;2023-11-19T08:04:12;101575.44;;;-6.30;100.00
53758;BME280;39674;59.860;30.672;2023-11-19T08:07:22;101686.00;;;-5.46;100.00
53758;BME280;39674;59.860;30.672;2023-11-19T08:14:51;101683.75;;;-5.35;100.00
53758;BME280;39674;59.860;30.672;2023-11-19T08:17:30;101563.97;;;-6.12;100.00
53758;BME280;39674;59.860;30.672;2023-11-19T08:20:19;101604.38;;;-5.79;100.00
53758;BME280;39674;59.860;30.672;2023-11-19T08:22:59;101583.25;;;-5.98;100.00
53758;BME280;39674;59.860;30.672;2023-11-19T08:28:26;101581.78;;;-5.89;100.00
53758;BME280;39674;59.860;30.672;2023-11-19T08:31:36;101564.41;;;-5.97;100.00
53758;BME280;39674;59.860;30.672;2023-11-19T08:34:55;101572.47;;;-5.86;100.00
53758;BME280;39674;59.860;30.672;2023-11-19T08:37:43;101665.22;;;-5.23;100.00
53758;BME280;39674;59.860;30.672;2023-11-19T08:41:25;101603.09;;;-5.65;100.00
53758;BME280;39674;59.860;30.672;2023-11-19T08:44:02;101540.50;;;-5.92;100.00
53758;BME280;39674;59.860;30.672;2023-11-19T08:49:54;101620.44;;;-5.28;100.00
53758;BME280;39674;59.860;30.672;2023-11-19T08:55:30;101599.53;;;-5.39;100.00
53758;BME280;39674;59.860;30.672;2023-11-19T08:58:46;101571.53;;;-5.59;100.00
53758;BME280;39674;59.860;30.672;2023-11-19T09:01:37;101574.81;;;-5.63;100.00
53758;BME280;39674;59.860;30.672;2023-11-19T09:04:19;101529.88;;;-5.74;100.00
53758;BME280;39674;59.860;30.672;2023-11-19T09:07:13;101552.63;;;-5.59;100.00
53758;BME280;39674;59.860;30.672;2023-11-19T09:10:04;101661.56;;;-5.01;100.00
53758;BME280;39674;59.860;30.672;2023-11-19T09:12:33;101639.81;;;-5.11;100.00
53758;BME280;39674;59.860;30.672;2023-11-19T09:15:03;101639.69;;;-5.16;100.00
53758;BME280;39674;59.860;30.672;2023-11-19T09:17:53;101641.59;;;-5.08;100.00
53758;BME280;39674;59.860;30.672;2023-11-19T09:20:24;101561.16;;;-5.60;100.00
53758;BME280;39674;59.860;30.672;2023-11-19T09:23:34;101569.25;;;-5.48;100.00
53758;BME280;39674;59.860;30.672;2023-11-19T09:29:36;101650.69;;;-4.89;100.00
53758;BME280;39674;59.860;30.672;2023-11-19T09:32:31;101546.03;;;-5.50;100.00
53758;BME280;39674;59.860;30.672;2023-11-19T09:35:22;101548.91;;;-5.39;100.00
53758;BME280;39674;59.860;30.672;2023-11-19T09:37:55;101638.69;;;-4.89;100.00
53758;BME280;39674;59.860;30.672;2023-11-19T09:40:27;101540.09;;;-5.47;100.00
53758;BME280;39674;59.860;30.672;2023-11-19T09:43:12;101648.25;;;-4.85;100.00
53758;BME280;39674;59.860;30.672;2023-11-19T09:45:48;101561.94;;;-5.33;100.00
53758;BME280;39674;59.860;30.672;2023-11-19T09:48:41;101538.44;;;-5.45;100.00
53758;BME280;39674;59.860;30.672;2023-11-19T09:52:21;101573.66;;;-5.12;100.00
53758;BME280;39674;59.860;30.672;2023-11-19T09:55:23;101601.50;;;-4.98;100.00
53758;BME280;39674;59.860;30.672;2023-11-19T09:58:28;101535.47;;;-5.28;100.00
53758;BME280;39674;59.860;30.672;2023-11-19T10:01:17;101588.78;;;-4.92;100.00
53758;BME280;39674;59.860;30.672;2023-11-19T10:04:31;101546.31;;;-5.07;100.00
53758;BME280;39674;59.860;30.672;2023-11-19T10:07:56;101519.38;;;-5.20;100.00
53758;BME280;39674;59.860;30.672;2023-11-19T10:10:46;101619.66;;;-4.60;100.00
53758;BME280;39674;59.860;30.672;2023-11-19T10:13:54;101540.47;;;-5.01;100.00
53758;BME280;39674;59.860;30.672;2023-11-19T10:16:54;101546.69;;;-4.93;100.00
53758;BME280;39674;59.860;30.672;2023-11-19T10:19:41;101506.53;;;-5.18;100.00
53758;BME280;39674;59.860;30.672;2023-11-19T10:22:20;101505.56;;;-5.22;100.00
53758;BME280;39674;59.860;30.672;2023-11-19T10:25:34;101516.03;;;-5.16;100.00
53758;BME280;39674;59.860;30.672;2023-11-19T10:28:47;101562.19;;;-4.91;100.00
53758;BME280;39674;59.860;30.672;2023-11-19T10:32:25;101546.19;;;-4.78;100.00
53758;BME280;39674;59.860;30.672;2023-11-19T10:36:00;101520.94;;;-4.91;100.00
53758;BME280;39674;59.860;30.672;2023-11-19T10:40:12;101545.03;;;-4.54;100.00
53758;BME280;39674;59.860;30.672;2023-11-19T10:44:04;101507.75;;;-4.69;100.00
53758;BME280;39674;59.860;30.672;2023-11-19T10:52:27;101624.03;;;-3.86;100.00
53758;BME280;39674;59.860;30.672;2023-11-19T10:55:15;101531.78;;;-4.33;100.00
53758;BME280;39674;59.860;30.672;2023-11-19T10:58:15;101505.25;;;-4.27;100.00
53758;BME280;39674;59.860;30.672;2023-11-19T11:30:25;101539.19;;;-4.47;100.00
53758;BME280;39674;59.860;30.672;2023-11-19T11:38:01;101558.22;;;-4.42;100.00
53758;BME280;39674;59.860;30.672;2023-11-19T11:40:31;101503.13;;;-4.82;100.00
53758;BME280;39674;59.860;30.672;2023-11-19T11:43:46;101484.88;;;-4.91;100.00
53758;BME280;39674;59.860;30.672;2023-11-19T11:47:00;101592.97;;;-4.27;100.00
53758;BME280;39674;59.860;30.672;2023-11-19T11:49:32;101526.56;;;-4.73;100.00
53758;BME280;39674;59.860;30.672;2023-11-19T11:52:24;101497.00;;;-4.87;100.00
53758;BME280;39674;59.860;30.672;2023-11-19T11:55:15;101545.06;;;-4.53;100.00
53758;BME280;39674;59.860;30.672;2023-11-19T11:57:50;101510.13;;;-4.78;100.00
53758;BME280;39674;59.860;30.672;2023-11-19T12:00:36;101547.78;;;-4.48;100.00
53758;BME280;39674;59.860;30.672;2023-11-19T12:03:22;101540.72;;;-4.55;100.00
53758;BME280;39674;59.860;30.672;2023-11-19T12:05:57;101496.41;;;-4.77;100.00
53758;BME280;39674;59.860;30.672;2023-11-19T12:08:41;101513.81;;;-4.67;100.00
53758;BME280;39674;59.860;30.672;2023-11-19T12:11:53;101459.00;;;-4.96;100.00
53758;BME280;39674;59.860;30.672;2023-11-19T12:15:02;101575.88;;;-4.22;100.00
53758;BME280;39674;59.860;30.672;2023-11-19T12:18:14;101467.66;;;-4.92;100.00
53758;BME280;39674;59.860;30.672;2023-11-19T12:21:13;101471.97;;;-4.93;100.00
53758;BME280;39674;59.860;30.672;2023-11-19T12:24:13;101525.19;;;-4.58;100.00
53758;BME280;39674;59.860;30.672;2023-11-19T12:26:56;101570.38;;;-4.38;100.00
53758;BME280;39674;59.860;30.672;2023-11-19T12:30:41;101500.75;;;-4.74;100.00
53758;BME280;39674;59.860;30.672;2023-11-19T12:33:33;101512.97;;;-4.65;100.00
53758;BME280;39674;59.860;30.672;2023-11-19T12:36:16;101511.25;;;-4.67;100.00
53758;BME280;39674;59.860;30.672;2023-11-19T12:39:20;101449.22;;;-5.09;100.00
53758;BME280;39674;59.860;30.672;2023-11-19T12:42:12;101531.03;;;-4.65;100.00
53758;BME280;39674;59.860;30.672;2023-11-19T12:45:20;101463.72;;;-5.13;100.00
53758;BME280;39674;59.860;30.672;2023-11-19T12:57:01;101494.72;;;-5.10;100.00
53758;BME280;39674;59.860;30.672;2023-11-19T13:00:01;101453.50;;;-5.43;100.00
53758;BME280;39674;59.860;30.672;2023-11-19T13:03:56;101446.56;;;-5.46;100.00
53758;BME280;39674;59.860;30.672;2023-11-19T13:08:04;101441.88;;;-5.62;100.00
53758;BME280;39674;59.860;30.672;2023-11-19T13:11:59;101443.50;;;-5.65;100.00
53758;BME280;39674;59.860;30.672;2023-11-19T13:22:02;101443.25;;;-5.74;100.00
53758;BME280;39674;59.860;30.672;2023-11-19T13:23:03;101469.09;;;-5.71;100.00
53758;BME280;39674;59.860;30.672;2023-11-19T13:25:57;101466.38;;;-5.75;100.00
53758;BME280;39674;59.860;30.672;2023-11-19T13:33:02;101512.78;;;-5.42;100.00
53758;BME280;39674;59.860;30.672;2023-11-19T13:35:53;101512.81;;;-5.40;100.00
53758;BME280;39674;59.860;30.672;2023-11-19T13:38:59;101487.47;;;-5.57;100.00
53758;BME280;39674;59.860;30.672;2023-11-19T13:41:36;101483.94;;;-5.60;100.00
53758;BME280;39674;59.860;30.672;2023-11-19T13:44:20;101549.25;;;-5.25;100.00
53758;BME280;39674;59.860;30.672;2023-11-19T13:47:51;101440.28;;;-5.89;100.00
53758;BME280;39674;59.860;30.672;2023-11-19T13:56:30;101442.09;;;-5.85;100.00
53758;BME280;39674;59.860;30.672;2023-11-19T13:58:12;101540.50;;;-5.32;100.00
53758;BME280;39674;59.860;30.672;2023-11-19T14:01:33;101478.63;;;-5.67;100.00
53758;BME280;39674;59.860;30.672;2023-11-19T14:05:54;101422.69;;;-6.06;100.00
53758;BME280;39674;59.860;30.672;2023-11-19T14:09:06;101530.81;;;-5.42;100.00
53758;BME280;39674;59.860;30.672;2023-11-19T14:12:10;101499.22;;;-5.67;100.00
53758;BME280;39674;59.860;30.672;2023-11-19T14:15:03;101418.78;;;-6.23;100.00
53758;BME280;39674;59.860;30.672;2023-11-19T14:19:04;101431.34;;;-6.33;100.00
53758;BME280;39674;59.860;30.672;2023-11-19T14:21:46;101432.56;;;-6.50;100.00
53758;BME280;39674;59.860;30.672;2023-11-19T14:24:37;101426.75;;;-6.72;100.00
53758;BME280;39674;59.860;30.672;2023-11-19T14:27:26;101420.44;;;-6.83;100.00
53758;BME280;39674;59.860;30.672;2023-11-19T14:30:21;101462.34;;;-6.57;100.00
53758;BME280;39674;59.860;30.672;2023-11-19T14:33:17;101488.47;;;-6.43;100.00
53758;BME280;39674;59.860;30.672;2023-11-19T14:51:16;101410.19;;;-7.36;100.00
53758;BME280;39674;59.860;30.672;2023-11-19T14:58:58;101409.63;;;-7.53;100.00
53758;BME280;39674;59.860;30.672;2023-11-19T15:01:56;101496.16;;;-6.98;100.00
53758;BME280;39674;59.860;30.672;2023-11-19T15:05:50;101415.78;;;-7.48;100.00
53758;BME280;39674;59.860;30.672;2023-11-19T15:15:01;101407.16;;;-7.50;100.00
53758;BME280;39674;59.860;30.672;2023-11-19T15:16:53;101417.31;;;-7.53;100.00
53758;BME280;39674;59.860;30.672;2023-11-19T15:20:18;101405.22;;;-7.58;100.00
53758;BME280;39674;59.860;30.672;2023-11-19T15:23:16;101424.50;;;-7.43;100.00
53758;BME280;39674;59.860;30.672;2023-11-19T15:25:49;101471.53;;;-7.18;100.00
53758;BME280;39674;59.860;30.672;2023-11-19T15:28:29;101479.38;;;-7.14;100.00
53758;BME280;39674;59.860;30.672;2023-11-19T15:31:41;101403.09;;;-7.69;100.00
53758;BME280;39674;59.860;30.672;2023-11-19T15:35:13;101395.91;;;-7.80;100.00
53758;BME280;39674;59.860;30.672;2023-11-19T15:38:26;101392.47;;;-7.80;100.00
53758;BME280;39674;59.860;30.672;2023-11-19T15:41:06;101464.03;;;-7.38;100.00
53758;BME280;39674;59.860;30.672;2023-11-19T15:45:08;101388.97;;;-7.82;100.00
53758;BME280;39674;59.860;30.672;2023-11-19T15:48:20;101435.59;;;-7.70;100.00
53758;BME280;39674;59.860;30.672;2023-11-19T15:51:15;101416.19;;;-7.86;100.00
53758;BME280;39674;59.860;30.672;2023-11-19T15:54:15;101421.19;;;-7.91;100.00
53758;BME280;39674;59.860;30.672;2023-11-19T15:57:17;101391.38;;;-8.11;100.00
53758;BME280;39674;59.860;30.672;2023-11-19T16:00:05;101460.47;;;-7.92;100.00
53758;BME280;39674;59.860;30.672;2023-11-19T16:02:50;101482.59;;;-7.94;100.00
53758;BME280;39674;59.860;30.672;2023-11-19T16:05:26;101403.63;;;-8.51;100.00
53758;BME280;39674;59.860;30.672;2023-11-19T16:08:27;101449.53;;;-8.33;100.00
53758;BME280;39674;59.860;30.672;2023-11-19T16:12:17;101495.91;;;-8.04;100.00
53758;BME280;39674;59.860;30.672;2023-11-19T16:32:19;101390.09;;;-8.94;100.00
53758;BME280;39674;59.860;30.672;2023-11-19T16:35:18;101379.56;;;-9.00;100.00
53758;BME280;39674;59.860;30.672;2023-11-19T16:37:53;101378.53;;;-9.05;100.00
53758;BME280;39674;59.860;30.672;2023-11-19T16:40:29;101365.50;;;-9.11;100.00
53758;BME280;39674;59.860;30.672;2023-11-19T16:44:00;101393.25;;;-8.99;100.00
53758;BME280;39674;59.860;30.672;2023-11-19T16:49:24;101421.50;;;-8.75;100.00
53758;BME280;39674;59.860;30.672;2023-11-19T16:50:07;101428.88;;;-8.62;100.00
53758;BME280;39674;59.860;30.672;2023-11-19T16:53:34;101395.91;;;-8.75;100.00
53758;BME280;39674;59.860;30.672;2023-11-19T16:56:13;101486.91;;;-8.15;100.00
53758;BME280;39674;59.860;30.672;2023-11-19T16:59:07;101383.09;;;-8.75;100.00
53758;BME280;39674;59.860;30.672;2023-11-19T17:02:01;101475.16;;;-8.10;100.00
53758;BME280;39674;59.860;30.672;2023-11-19T17:04:43;101390.44;;;-8.62;100.00
53758;BME280;39674;59.860;30.672;2023-11-19T17:07:17;101496.22;;;-7.95;100.00
53758;BME280;39674;59.860;30.672;2023-11-19T17:09:56;101391.75;;;-8.49;100.00
53758;BME280;39674;59.860;30.672;2023-11-19T17:12:59;101391.81;;;-8.47;100.00
53758;BME280;39674;59.860;30.672;2023-11-19T17:16:10;101449.84;;;-8.01;100.00
53758;BME280;39674;59.860;30.672;2023-11-19T17:19:39;101497.38;;;-7.64;100.00
53758;BME280;39674;59.860;30.672;2023-11-19T17:22:39;101430.50;;;-7.93;100.00
53758;BME280;39674;59.860;30.672;2023-11-19T17:25:25;101381.00;;;-8.14;100.00
53758;BME280;39674;59.860;30.672;2023-11-19T17:28:36;101424.78;;;-7.85;100.00
53758;BME280;39674;59.860;30.672;2023-11-19T17:31:11;101407.28;;;-7.96;100.00
53758;BME280;39674;59.860;30.672;2023-11-19T17:34:09;101386.47;;;-8.05;100.00
53758;BME280;39674;59.860;30.672;2023-11-19T17:36:57;101375.34;;;-8.06;100.00
53758;BME280;39674;59.860;30.672;2023-11-19T17:39:36;101494.16;;;-7.32;100.00
53758;BME280;39674;59.860;30.672;2023-11-19T17:42:15;101496.03;;;-7.28;100.00
53758;BME280;39674;59.860;30.672;2023-11-19T17:44:51;101466.47;;;-7.41;100.00
53758;BME280;39674;59.860;30.672;2023-11-19T17:47:56;101450.91;;;-7.46;100.00
53758;BME280;39674;59.860;30.672;2023-11-19T17:50:40;101395.06;;;-7.79;100.00
53758;BME280;39674;59.860;30.672;2023-11-19T17:53:29;101494.03;;;-7.11;100.00
53758;BME280;39674;59.860;30.672;2023-11-19T17:56:12;101450.53;;;-7.32;100.00
53758;BME280;39674;59.860;30.672;2023-11-19T17:58:45;101449.81;;;-7.28;100.00
53758;BME280;39674;59.860;30.672;2023-11-19T18:01:20;101410.56;;;-7.51;100.00
53758;BME280;39674;59.860;30.672;2023-11-19T18:03:53;101438.47;;;-7.35;100.00
53758;BME280;39674;59.860;30.672;2023-11-19T18:06:27;101398.34;;;-7.59;100.00
53758;BME280;39674;59.860;30.672;2023-11-19T18:09:04;101402.13;;;-7.47;100.00
53758;BME280;39674;59.860;30.672;2023-11-19T18:12:14;101499.25;;;-6.82;100.00
53758;BME280;39674;59.860;30.672;2023-11-19T18:17:05;101460.91;;;-7.03;100.00
53758;BME280;39674;59.860;30.672;2023-11-19T18:20:06;101506.41;;;-6.72;100.00
53758;BME280;39674;59.860;30.672;2023-11-19T18:23:32;101396.38;;;-7.40;100.00
53758;BME280;39674;59.860;30.672;2023-11-19T18:46:45;101412.25;;;-6.99;100.00
53758;BME280;39674;59.860;30.672;2023-11-19T18:50:33;101379.50;;;-7.06;100.00
53758;BME280;39674;59.860;30.672;2023-11-19T18:54:43;101500.78;;;-6.33;100.00
53758;BME280;39674;59.860;30.672;2023-11-19T18:58:17;101386.66;;;-6.96;100.00
53758;BME280;39674;59.860;30.672;2023-11-19T19:12:22;101503.56;;;-6.26;100.00
53758;BME280;39674;59.860;30.672;2023-11-19T19:16:05;101400.50;;;-6.90;100.00
53758;BME280;39674;59.860;30.672;2023-11-19T19:19:25;101498.50;;;-6.23;100.00
53758;BME280;39674;59.860;30.672;2023-11-19T19:22:35;101369.69;;;-6.90;100.00
53758;BME280;39674;59.860;30.672;2023-11-19T19:25:20;101385.38;;;-6.81;100.00
53758;BME280;39674;59.860;30.672;2023-11-19T19:28:45;101379.47;;;-6.79;100.00
53758;BME280;39674;59.860;30.672;2023-11-19T19:31:43;101387.22;;;-6.77;100.00
53758;BME280;39674;59.860;30.672;2023-11-19T19:34:20;101433.34;;;-6.53;100.00
53758;BME280;39674;59.860;30.672;2023-11-19T19:37:42;101370.97;;;-6.76;100.00
53758;BME280;39674;59.860;30.672;2023-11-19T19:40:48;101435.59;;;-6.35;100.00
53758;BME280;39674;59.860;30.672;2023-11-19T19:44:12;101466.16;;;-6.15;100.00
53758;BME280;39674;59.860;30.672;2023-11-19T19:47:46;101378.97;;;-6.67;100.00
53758;BME280;39674;59.860;30.672;2023-11-19T19:52:54;101363.50;;;-6.68;100.00
53758;BME280;39674;59.860;30.672;2023-11-19T19:54:33;101358.25;;;-6.73;100.00
53758;BME280;39674;59.860;30.672;2023-11-19T19:57:44;101419.19;;;-6.40;100.00
53758;BME280;39674;59.860;30.672;2023-11-19T20:05:00;101483.84;;;-5.96;100.00
53758;BME280;39674;59.860;30.672;2023-11-19T20:08:54;101371.59;;;-6.56;100.00
53758;BME280;39674;59.860;30.672;2023-11-19T20:11:50;101368.06;;;-6.59;100.00
53758;BME280;39674;59.860;30.672;2023-11-19T20:15:02;101412.72;;;-6.25;100.00
53758;BME280;39674;59.860;30.672;2023-11-19T20:18:49;101467.84;;;-5.84;100.00
53758;BME280;39674;59.860;30.672;2023-11-19T20:22:27;101378.91;;;-6.39;100.00
53758;BME280;39674;59.860;30.672;2023-11-19T20:25:23;101385.03;;;-6.34;100.00
53758;BME280;39674;59.860;30.672;2023-11-19T20:29:05;101364.94;;;-6.48;100.00
53758;BME280;39674;59.860;30.672;2023-11-19T20:35:36;101412.88;;;-6.19;100.00
53758;BME280;39674;59.860;30.672;2023-11-19T20:38:40;101339.03;;;-6.55;100.00
53758;BME280;39674;59.860;30.672;2023-11-19T20:41:34;101406.06;;;-6.19;100.00
53758;BME280;39674;59.860;30.672;2023-11-19T20:44:30;101465.28;;;-5.84;100.00
53758;BME280;39674;59.860;30.672;2023-11-19T20:47:57;101423.56;;;-6.07;100.00
53758;BME280;39674;59.860;30.672;2023-11-19T20:55:53;101348.41;;;-6.57;100.00
53758;BME280;39674;59.860;30.672;2023-11-19T20:59:37;101461.97;;;-5.81;100.00
53758;BME280;39674;59.860;30.672;2023-11-19T21:02:27;101460.22;;;-5.82;100.00
53758;BME280;39674;59.860;30.672;2023-11-19T21:05:59;101461.16;;;-5.78;100.00
53758;BME280;39674;59.860;30.672;2023-11-19T21:09:51;101455.13;;;-5.79;100.00
53758;BME280;39674;59.860;30.672;2023-11-19T21:17:15;101346.09;;;-6.48;100.00
53758;BME280;39674;59.860;30.672;2023-11-19T21:20:55;101452.63;;;-5.77;100.00
53758;BME280;39674;59.860;30.672;2023-11-19T21:24:13;101456.25;;;-5.69;100.00
53758;BME280;39674;59.860;30.672;2023-11-19T21:36:11;101354.16;;;-6.36;100.00
53758;BME280;39674;59.860;30.672;2023-11-19T21:40:25;101404.78;;;-6.03;100.00
53758;BME280;39674;59.860;30.672;2023-11-19T21:43:48;101400.59;;;-5.99;100.00
53758;BME280;39674;59.860;30.672;2023-11-19T21:55:45;101463.19;;;-5.67;100.00
53758;BME280;39674;59.860;30.672;2023-11-19T22:12:11;101332.53;;;-6.42;100.00
53758;BME280;39674;59.860;30.672;2023-11-19T22:15:33;101368.13;;;-6.26;100.00
53758;BME280;39674;59.860;30.672;2023-11-19T22:19:18;101349.88;;;-6.35;100.00
53758;BME280;39674;59.860;30.672;2023-11-19T22:22:00;101370.84;;;-6.21;100.00
53758;BME280;39674;59.860;30.672;2023-11-19T22:25:08;101346.50;;;-6.33;100.00
53758;BME280;39674;59.860;30.672;2023-11-19T22:39:55;101371.91;;;-6.13;100.00
53758;BME280;39674;59.860;30.672;2023-11-19T22:47:25;101402.63;;;-5.87;100.00
53758;BME280;39674;59.860;30.672;2023-11-19T22:51:16;101399.84;;;-5.93;100.00
53758;BME280;39674;59.860;30.672;2023-11-19T22:54:36;101335.16;;;-6.41;100.00
53758;BME280;39674;59.860;30.672;2023-11-19T22:58:02;101341.31;;;-6.36;100.00
53758;BME280;39674;59.860;30.672;2023-11-19T23:01:31;101448.59;;;-5.68;100.00
53758;BME280;39674;59.860;30.672;2023-11-19T23:05:36;101441.59;;;-5.72;100.00
53758;BME280;39674;59.860;30.672;2023-11-19T23:12:58;101335.34;;;-6.35;100.00
53758;BME280;39674;59.860;30.672;2023-11-19T23:16:52;101341.50;;;-6.28;100.00
53758;BME280;39674;59.860;30.672;2023-11-19T23:20:56;101324.16;;;-6.35;100.00
53758;BME280;39674;59.860;30.672;2023-11-19T23:24:33;101325.06;;;-6.35;100.00
53758;BME280;39674;59.860;30.672;2023-11-19T23:32:24;101323.22;;;-6.39;100.00
53758;BME280;39674;59.860;30.672;2023-11-19T23:35:51;101324.94;;;-6.38;100.00
53758;BME280;39674;59.860;30.672;2023-11-19T23:39:26;101324.22;;;-6.34;100.00
53758;BME280;39674;59.860;30.672;2023-11-19T23:43:08;101438.53;;;-5.58;100.00
53758;BME280;39674;59.860;30.672;2023-11-19T23:46:22;101334.63;;;-6.29;100.00
53758;BME280;39674;59.860;30.672;2023-11-19T23:50:15;101340.72;;;-6.25;100.00
53758;BME280;39674;59.860;30.672;2023-11-19T23:53:38;101356.31;;;-6.19;100.00
53758;BME280;39674;59.860;30.672;2023-11-19T23:57:05;101329.41;;;-6.32;100.00
